sensor_id;sensor_type;location;lat;lon;timestamp;P1;durP1;ratioP1;P2;durP2;ratioP2
45358;SDS011;31096;49.292;8.710;2022-11-14T00:00:52;16.02;;;9.05;;
45358;SDS011;31096;49.292;8.710;2022-11-14T00:05:44;18.07;;;10.17;;
45358;SDS011;31096;49.292;8.710;2022-11-14T00:10:35;17.27;;;10.55;;
45358;SDS011;31096;49.292;8.710;2022-11-14T00:15:25;16.80;;;9.67;;
45358;SDS011;31096;49.292;8.710;2022-11-14T00:20:16;16.90;;;9.03;;
45358;SDS011;31096;49.292;8.710;2022-11-14T00:25:08;15.77;;;9.27;;
45358;SDS011;31096;49.292;8.710;2022-11-14T00:29:59;18.60;;;9.10;;
45358;SDS011;31096;49.292;8.710;2022-11-14T00:34:49;18.13;;;9.67;;
45358;SDS011;31096;49.292;8.710;2022-11-14T00:39:40;18.70;;;9.80;;
45358;SDS011;31096;49.292;8.710;2022-11-14T00:44:30;15.67;;;8.30;;
45358;SDS011;31096;49.292;8.710;2022-11-14T00:49:21;15.07;;;8.93;;
45358;SDS011;31096;49.292;8.710;2022-11-14T00:54:12;14.50;;;9.00;;
45358;SDS011;31096;49.292;8.710;2022-11-14T00:59:02;18.65;;;10.05;;
45358;SDS011;31096;49.292;8.710;2022-11-14T01:03:53;17.75;;;9.35;;
45358;SDS011;31096;49.292;8.710;2022-11-14T01:08:44;15.67;;;9.20;;
45358;SDS011;31096;49.292;8.710;2022-11-14T01:13:34;15.40;;;9.13;;
45358;SDS011;31096;49.292;8.710;2022-11-14T01:18:26;16.30;;;9.30;;
45358;SDS011;31096;49.292;8.710;2022-11-14T01:23:17;17.60;;;10.02;;
45358;SDS011;31096;49.292;8.710;2022-11-14T01:28:08;14.93;;;8.27;;
45358;SDS011;31096;49.292;8.710;2022-11-14T01:33:05;15.88;;;8.65;;
45358;SDS011;31096;49.292;8.710;2022-11-14T01:37:56;14.70;;;8.90;;
45358;SDS011;31096;49.292;8.710;2022-11-14T01:48:25;17.40;;;8.73;;
45358;SDS011;31096;49.292;8.710;2022-11-14T01:53:17;14.23;;;8.63;;
45358;SDS011;31096;49.292;8.710;2022-11-14T01:58:07;17.77;;;9.73;;
45358;SDS011;31096;49.292;8.710;2022-11-14T02:02:59;16.95;;;9.70;;
45358;SDS011;31096;49.292;8.710;2022-11-14T02:07:49;15.87;;;9.60;;
45358;SDS011;31096;49.292;8.710;2022-11-14T02:12:40;17.17;;;9.70;;
45358;SDS011;31096;49.292;8.710;2022-11-14T02:17:32;19.30;;;11.27;;
45358;SDS011;31096;49.292;8.710;2022-11-14T02:22:22;19.98;;;11.15;;
45358;SDS011;31096;49.292;8.710;2022-11-14T02:27:13;18.45;;;9.38;;
45358;SDS011;31096;49.292;8.710;2022-11-14T02:32:04;21.98;;;10.73;;
45358;SDS011;31096;49.292;8.710;2022-11-14T02:36:55;18.95;;;10.20;;
45358;SDS011;31096;49.292;8.710;2022-11-14T02:41:46;17.42;;;10.45;;
45358;SDS011;31096;49.292;8.710;2022-11-14T02:46:39;18.17;;;10.33;;
45358;SDS011;31096;49.292;8.710;2022-11-14T02:51:29;15.65;;;9.13;;
45358;SDS011;31096;49.292;8.710;2022-11-14T02:56:20;17.63;;;9.23;;
45358;SDS011;31096;49.292;8.710;2022-11-14T03:01:10;19.77;;;10.13;;
45358;SDS011;31096;49.292;8.710;2022-11-14T03:06:02;17.00;;;9.77;;
45358;SDS011;31096;49.292;8.710;2022-11-14T03:10:53;19.02;;;10.27;;
45358;SDS011;31096;49.292;8.710;2022-11-14T03:15:44;17.83;;;10.03;;
45358;SDS011;31096;49.292;8.710;2022-11-14T03:20:35;17.85;;;9.50;;
45358;SDS011;31096;49.292;8.710;2022-11-14T03:25:26;17.13;;;9.10;;
45358;SDS011;31096;49.292;8.710;2022-11-14T03:30:17;16.43;;;8.83;;
45358;SDS011;31096;49.292;8.710;2022-11-14T03:35:08;16.85;;;8.85;;
45358;SDS011;31096;49.292;8.710;2022-11-14T03:39:58;16.50;;;8.63;;
45358;SDS011;31096;49.292;8.710;2022-11-14T03:44:49;18.48;;;9.00;;
45358;SDS011;31096;49.292;8.710;2022-11-14T03:49:39;15.07;;;8.53;;
45358;SDS011;31096;49.292;8.710;2022-11-14T03:54:30;16.60;;;8.63;;
45358;SDS011;31096;49.292;8.710;2022-11-14T03:59:21;17.80;;;8.70;;
45358;SDS011;31096;49.292;8.710;2022-11-14T04:04:11;14.82;;;7.82;;
45358;SDS011;31096;49.292;8.710;2022-11-14T04:09:02;17.07;;;7.80;;
45358;SDS011;31096;49.292;8.710;2022-11-14T04:13:53;17.43;;;8.73;;
45358;SDS011;31096;49.292;8.710;2022-11-14T04:18:43;15.43;;;8.82;;
45358;SDS011;31096;49.292;8.710;2022-11-14T04:23:34;16.70;;;8.77;;
45358;SDS011;31096;49.292;8.710;2022-11-14T04:28:25;16.77;;;8.43;;
45358;SDS011;31096;49.292;8.710;2022-11-14T04:33:15;16.55;;;7.47;;
45358;SDS011;31096;49.292;8.710;2022-11-14T04:38:06;17.88;;;8.60;;
45358;SDS011;31096;49.292;8.710;2022-11-14T04:42:57;18.50;;;9.07;;
45358;SDS011;31096;49.292;8.710;2022-11-14T04:47:47;17.90;;;8.90;;
45358;SDS011;31096;49.292;8.710;2022-11-14T04:52:38;14.23;;;7.87;;
45358;SDS011;31096;49.292;8.710;2022-11-14T04:57:28;17.38;;;8.57;;
45358;SDS011;31096;49.292;8.710;2022-11-14T05:02:19;16.67;;;9.07;;
45358;SDS011;31096;49.292;8.710;2022-11-14T05:07:10;18.57;;;9.60;;
45358;SDS011;31096;49.292;8.710;2022-11-14T05:12:00;15.80;;;8.50;;
45358;SDS011;31096;49.292;8.710;2022-11-14T05:16:52;18.33;;;8.73;;
45358;SDS011;31096;49.292;8.710;2022-11-14T05:21:43;17.70;;;9.77;;
45358;SDS011;31096;49.292;8.710;2022-11-14T05:26:33;17.80;;;9.43;;
45358;SDS011;31096;49.292;8.710;2022-11-14T05:31:24;17.33;;;9.60;;
45358;SDS011;31096;49.292;8.710;2022-11-14T05:36:15;16.27;;;8.30;;
45358;SDS011;31096;49.292;8.710;2022-11-14T05:41:10;16.40;;;9.57;;
45358;SDS011;31096;49.292;8.710;2022-11-14T05:46:08;16.60;;;9.33;;
45358;SDS011;31096;49.292;8.710;2022-11-14T05:51:00;13.75;;;8.32;;
45358;SDS011;31096;49.292;8.710;2022-11-14T05:55:54;16.83;;;8.70;;
45358;SDS011;31096;49.292;8.710;2022-11-14T06:00:49;15.95;;;8.23;;
45358;SDS011;31096;49.292;8.710;2022-11-14T06:05:40;15.73;;;8.73;;
45358;SDS011;31096;49.292;8.710;2022-11-14T06:10:31;16.60;;;9.27;;
45358;SDS011;31096;49.292;8.710;2022-11-14T06:15:24;18.03;;;9.50;;
45358;SDS011;31096;49.292;8.710;2022-11-14T06:20:15;18.23;;;9.80;;
45358;SDS011;31096;49.292;8.710;2022-11-14T06:25:07;17.37;;;8.47;;
45358;SDS011;31096;49.292;8.710;2022-11-14T06:29:58;16.08;;;9.23;;
45358;SDS011;31096;49.292;8.710;2022-11-14T06:34:49;16.67;;;9.80;;
45358;SDS011;31096;49.292;8.710;2022-11-14T06:39:39;17.50;;;10.10;;
45358;SDS011;31096;49.292;8.710;2022-11-14T06:44:30;16.67;;;9.20;;
45358;SDS011;31096;49.292;8.710;2022-11-14T06:49:20;16.50;;;8.35;;
45358;SDS011;31096;49.292;8.710;2022-11-14T06:54:13;16.27;;;8.57;;
45358;SDS011;31096;49.292;8.710;2022-11-14T06:59:04;16.58;;;9.18;;
45358;SDS011;31096;49.292;8.710;2022-11-14T07:03:55;18.57;;;9.47;;
45358;SDS011;31096;49.292;8.710;2022-11-14T07:08:47;18.63;;;9.67;;
45358;SDS011;31096;49.292;8.710;2022-11-14T07:13:38;18.65;;;9.25;;
45358;SDS011;31096;49.292;8.710;2022-11-14T07:18:29;18.37;;;9.80;;
45358;SDS011;31096;49.292;8.710;2022-11-14T07:23:21;17.85;;;9.93;;
45358;SDS011;31096;49.292;8.710;2022-11-14T07:28:12;18.20;;;9.40;;
45358;SDS011;31096;49.292;8.710;2022-11-14T07:33:02;21.43;;;11.03;;
45358;SDS011;31096;49.292;8.710;2022-11-14T07:37:59;20.30;;;10.00;;
45358;SDS011;31096;49.292;8.710;2022-11-14T07:42:55;20.70;;;9.75;;
45358;SDS011;31096;49.292;8.710;2022-11-14T07:47:48;19.60;;;9.53;;
45358;SDS011;31096;49.292;8.710;2022-11-14T07:52:39;18.43;;;10.63;;
45358;SDS011;31096;49.292;8.710;2022-11-14T07:57:31;21.08;;;10.80;;
45358;SDS011;31096;49.292;8.710;2022-11-14T08:02:21;21.73;;;10.67;;
45358;SDS011;31096;49.292;8.710;2022-11-14T08:07:12;21.55;;;10.73;;
45358;SDS011;31096;49.292;8.710;2022-11-14T08:12:03;19.95;;;9.95;;
45358;SDS011;31096;49.292;8.710;2022-11-14T08:16:54;19.63;;;9.87;;
45358;SDS011;31096;49.292;8.710;2022-11-14T08:21:44;18.98;;;10.07;;
45358;SDS011;31096;49.292;8.710;2022-11-14T08:26:35;20.23;;;10.10;;
45358;SDS011;31096;49.292;8.710;2022-11-14T08:31:26;21.20;;;10.40;;
45358;SDS011;31096;49.292;8.710;2022-11-14T08:36:17;19.13;;;9.73;;
45358;SDS011;31096;49.292;8.710;2022-11-14T08:41:07;18.93;;;11.10;;
45358;SDS011;31096;49.292;8.710;2022-11-14T08:45:58;18.85;;;9.63;;
45358;SDS011;31096;49.292;8.710;2022-11-14T08:50:51;17.83;;;10.20;;
45358;SDS011;31096;49.292;8.710;2022-11-14T08:55:45;19.77;;;10.18;;
45358;SDS011;31096;49.292;8.710;2022-11-14T09:00:37;16.40;;;8.77;;
45358;SDS011;31096;49.292;8.710;2022-11-14T09:05:28;17.08;;;9.05;;
45358;SDS011;31096;49.292;8.710;2022-11-14T09:10:18;18.23;;;9.47;;
45358;SDS011;31096;49.292;8.710;2022-11-14T09:15:09;16.73;;;9.37;;
45358;SDS011;31096;49.292;8.710;2022-11-14T09:20:00;14.70;;;8.73;;
45358;SDS011;31096;49.292;8.710;2022-11-14T09:24:51;16.30;;;8.50;;
45358;SDS011;31096;49.292;8.710;2022-11-14T09:29:42;13.55;;;7.50;;
45358;SDS011;31096;49.292;8.710;2022-11-14T09:34:32;12.27;;;7.07;;
45358;SDS011;31096;49.292;8.710;2022-11-14T09:39:23;14.55;;;7.80;;
45358;SDS011;31096;49.292;8.710;2022-11-14T09:49:29;13.90;;;7.38;;
45358;SDS011;31096;49.292;8.710;2022-11-14T09:59:42;13.27;;;7.20;;
45358;SDS011;31096;49.292;8.710;2022-11-14T10:10:25;11.15;;;5.95;;
45358;SDS011;31096;49.292;8.710;2022-11-14T10:20:54;12.13;;;6.38;;
45358;SDS011;31096;49.292;8.710;2022-11-14T10:25:57;10.88;;;5.93;;
45358;SDS011;31096;49.292;8.710;2022-11-14T10:31:23;11.53;;;5.93;;
45358;SDS011;31096;49.292;8.710;2022-11-14T10:36:28;12.10;;;5.65;;
45358;SDS011;31096;49.292;8.710;2022-11-14T10:42:48;11.38;;;6.32;;
45358;SDS011;31096;49.292;8.710;2022-11-14T10:47:34;10.60;;;5.17;;
45358;SDS011;31096;49.292;8.710;2022-11-14T10:52:34;8.20;;;4.50;;
45358;SDS011;31096;49.292;8.710;2022-11-14T10:57:28;10.63;;;5.47;;
45358;SDS011;31096;49.292;8.710;2022-11-14T11:02:19;9.20;;;5.30;;
45358;SDS011;31096;49.292;8.710;2022-11-14T11:12:22;7.90;;;3.83;;
45358;SDS011;31096;49.292;8.710;2022-11-14T11:17:25;9.73;;;4.70;;
45358;SDS011;31096;49.292;8.710;2022-11-14T11:27:31;6.68;;;3.75;;
45358;SDS011;31096;49.292;8.710;2022-11-14T11:32:23;11.60;;;4.43;;
45358;SDS011;31096;49.292;8.710;2022-11-14T11:37:19;8.30;;;4.38;;
45358;SDS011;31096;49.292;8.710;2022-11-14T11:42:39;9.18;;;4.65;;
45358;SDS011;31096;49.292;8.710;2022-11-14T11:47:52;7.10;;;3.95;;
45358;SDS011;31096;49.292;8.710;2022-11-14T11:52:55;9.13;;;4.63;;
45358;SDS011;31096;49.292;8.710;2022-11-14T12:03:24;7.45;;;4.50;;
45358;SDS011;31096;49.292;8.710;2022-11-14T12:08:19;6.95;;;3.80;;
45358;SDS011;31096;49.292;8.710;2022-11-14T12:35:06;9.48;;;4.53;;
45358;SDS011;31096;49.292;8.710;2022-11-14T12:40:04;6.40;;;4.00;;
45358;SDS011;31096;49.292;8.710;2022-11-14T12:44:57;7.70;;;4.20;;
45358;SDS011;31096;49.292;8.710;2022-11-14T12:59:45;6.10;;;3.60;;
45358;SDS011;31096;49.292;8.710;2022-11-14T13:14:48;7.13;;;3.63;;
45358;SDS011;31096;49.292;8.710;2022-11-14T13:25:48;6.83;;;3.43;;
45358;SDS011;31096;49.292;8.710;2022-11-14T13:35:56;7.70;;;4.30;;
45358;SDS011;31096;49.292;8.710;2022-11-14T13:46:40;6.18;;;3.85;;
45358;SDS011;31096;49.292;8.710;2022-11-14T13:51:51;6.22;;;3.40;;
45358;SDS011;31096;49.292;8.710;2022-11-14T14:07:10;7.30;;;3.92;;
45358;SDS011;31096;49.292;8.710;2022-11-14T14:22:42;7.38;;;4.03;;
45358;SDS011;31096;49.292;8.710;2022-11-14T14:33:27;6.40;;;4.05;;
45358;SDS011;31096;49.292;8.710;2022-11-14T14:38:32;6.88;;;3.88;;
45358;SDS011;31096;49.292;8.710;2022-11-14T14:48:24;6.82;;;3.78;;
45358;SDS011;31096;49.292;8.710;2022-11-14T15:03:18;11.77;;;5.72;;
45358;SDS011;31096;49.292;8.710;2022-11-14T15:08:10;7.78;;;4.28;;
45358;SDS011;31096;49.292;8.710;2022-11-14T15:13:03;8.50;;;4.33;;
45358;SDS011;31096;49.292;8.710;2022-11-14T15:17:54;6.70;;;4.10;;
45358;SDS011;31096;49.292;8.710;2022-11-14T15:39:39;9.27;;;5.53;;
45358;SDS011;31096;49.292;8.710;2022-11-14T15:44:31;8.30;;;4.80;;
45358;SDS011;31096;49.292;8.710;2022-11-14T15:49:23;9.50;;;5.38;;
45358;SDS011;31096;49.292;8.710;2022-11-14T15:59:20;8.83;;;5.17;;
45358;SDS011;31096;49.292;8.710;2022-11-14T16:04:18;8.88;;;5.55;;
45358;SDS011;31096;49.292;8.710;2022-11-14T16:09:20;10.48;;;5.22;;
45358;SDS011;31096;49.292;8.710;2022-11-14T16:14:10;10.73;;;6.60;;
45358;SDS011;31096;49.292;8.710;2022-11-14T16:19:02;12.07;;;6.03;;
45358;SDS011;31096;49.292;8.710;2022-11-14T16:23:53;10.77;;;7.05;;
45358;SDS011;31096;49.292;8.710;2022-11-14T16:28:44;10.77;;;6.40;;
45358;SDS011;31096;49.292;8.710;2022-11-14T16:33:34;11.63;;;7.13;;
45358;SDS011;31096;49.292;8.710;2022-11-14T16:38:25;10.23;;;6.53;;
45358;SDS011;31096;49.292;8.710;2022-11-14T16:43:16;10.50;;;6.57;;
45358;SDS011;31096;49.292;8.710;2022-11-14T16:48:07;11.00;;;6.72;;
45358;SDS011;31096;49.292;8.710;2022-11-14T16:52:58;11.20;;;7.17;;
45358;SDS011;31096;49.292;8.710;2022-11-14T16:57:48;10.43;;;5.47;;
45358;SDS011;31096;49.292;8.710;2022-11-14T17:02:39;10.95;;;5.93;;
45358;SDS011;31096;49.292;8.710;2022-11-14T17:07:30;7.50;;;4.80;;
45358;SDS011;31096;49.292;8.710;2022-11-14T17:12:22;9.82;;;5.30;;
45358;SDS011;31096;49.292;8.710;2022-11-14T17:17:14;10.87;;;6.57;;
45358;SDS011;31096;49.292;8.710;2022-11-14T17:22:04;9.65;;;5.78;;
45358;SDS011;31096;49.292;8.710;2022-11-14T17:26:55;11.67;;;7.57;;
45358;SDS011;31096;49.292;8.710;2022-11-14T17:31:46;11.35;;;6.80;;
45358;SDS011;31096;49.292;8.710;2022-11-14T17:36:36;9.97;;;6.13;;
45358;SDS011;31096;49.292;8.710;2022-11-14T17:41:27;11.67;;;7.60;;
45358;SDS011;31096;49.292;8.710;2022-11-14T17:46:18;10.95;;;7.35;;
45358;SDS011;31096;49.292;8.710;2022-11-14T17:51:10;15.63;;;10.87;;
45358;SDS011;31096;49.292;8.710;2022-11-14T17:56:02;13.82;;;8.98;;
45358;SDS011;31096;49.292;8.710;2022-11-14T18:00:54;20.00;;;12.90;;
45358;SDS011;31096;49.292;8.710;2022-11-14T18:05:47;16.37;;;10.87;;
45358;SDS011;31096;49.292;8.710;2022-11-14T18:10:38;14.80;;;9.05;;
45358;SDS011;31096;49.292;8.710;2022-11-14T18:15:32;12.07;;;7.37;;
45358;SDS011;31096;49.292;8.710;2022-11-14T18:20:23;15.48;;;8.60;;
45358;SDS011;31096;49.292;8.710;2022-11-14T18:25:14;14.00;;;8.57;;
45358;SDS011;31096;49.292;8.710;2022-11-14T18:30:05;14.48;;;8.65;;
45358;SDS011;31096;49.292;8.710;2022-11-14T18:34:56;17.47;;;10.80;;
45358;SDS011;31096;49.292;8.710;2022-11-14T18:39:47;18.33;;;10.70;;
45358;SDS011;31096;49.292;8.710;2022-11-14T18:44:37;17.80;;;10.70;;
45358;SDS011;31096;49.292;8.710;2022-11-14T18:49:28;15.80;;;10.53;;
45358;SDS011;31096;49.292;8.710;2022-11-14T18:54:19;18.73;;;10.50;;
45358;SDS011;31096;49.292;8.710;2022-11-14T18:59:10;20.43;;;10.57;;
45358;SDS011;31096;49.292;8.710;2022-11-14T19:04:02;17.25;;;11.43;;
45358;SDS011;31096;49.292;8.710;2022-11-14T19:08:58;21.40;;;13.03;;
45358;SDS011;31096;49.292;8.710;2022-11-14T19:13:51;26.55;;;12.55;;
45358;SDS011;31096;49.292;8.710;2022-11-14T19:18:42;12.07;;;8.17;;
45358;SDS011;31096;49.292;8.710;2022-11-14T19:23:32;13.05;;;8.40;;
45358;SDS011;31096;49.292;8.710;2022-11-14T19:28:23;11.60;;;7.47;;
45358;SDS011;31096;49.292;8.710;2022-11-14T19:33:15;16.58;;;7.75;;
45358;SDS011;31096;49.292;8.710;2022-11-14T19:38:05;9.68;;;5.63;;
45358;SDS011;31096;49.292;8.710;2022-11-14T19:42:56;11.23;;;7.07;;
45358;SDS011;31096;49.292;8.710;2022-11-14T19:47:50;10.43;;;7.57;;
45358;SDS011;31096;49.292;8.710;2022-11-14T19:52:41;13.57;;;8.57;;
45358;SDS011;31096;49.292;8.710;2022-11-14T19:57:32;13.37;;;7.90;;
45358;SDS011;31096;49.292;8.710;2022-11-14T20:02:22;12.25;;;7.82;;
45358;SDS011;31096;49.292;8.710;2022-11-14T20:07:14;12.97;;;7.60;;
45358;SDS011;31096;49.292;8.710;2022-11-14T20:12:05;12.75;;;7.57;;
45358;SDS011;31096;49.292;8.710;2022-11-14T20:16:56;12.93;;;7.27;;
45358;SDS011;31096;49.292;8.710;2022-11-14T20:21:47;11.18;;;7.00;;
45358;SDS011;31096;49.292;8.710;2022-11-14T20:26:38;12.43;;;6.17;;
45358;SDS011;31096;49.292;8.710;2022-11-14T20:31:29;10.52;;;5.68;;
45358;SDS011;31096;49.292;8.710;2022-11-14T20:36:21;10.07;;;6.20;;
45358;SDS011;31096;49.292;8.710;2022-11-14T20:41:14;10.15;;;6.00;;
45358;SDS011;31096;49.292;8.710;2022-11-14T20:46:10;9.52;;;6.03;;
45358;SDS011;31096;49.292;8.710;2022-11-14T20:51:09;11.30;;;6.47;;
45358;SDS011;31096;49.292;8.710;2022-11-14T20:56:10;10.80;;;5.85;;
45358;SDS011;31096;49.292;8.710;2022-11-14T21:01:01;10.20;;;5.70;;
45358;SDS011;31096;49.292;8.710;2022-11-14T21:05:52;10.50;;;7.03;;
45358;SDS011;31096;49.292;8.710;2022-11-14T21:10:45;9.73;;;6.03;;
45358;SDS011;31096;49.292;8.710;2022-11-14T21:15:38;10.60;;;6.17;;
45358;SDS011;31096;49.292;8.710;2022-11-14T21:20:29;11.15;;;7.20;;
45358;SDS011;31096;49.292;8.710;2022-11-14T21:25:19;11.90;;;7.00;;
45358;SDS011;31096;49.292;8.710;2022-11-14T21:30:10;13.07;;;7.70;;
45358;SDS011;31096;49.292;8.710;2022-11-14T21:35:01;12.77;;;6.97;;
45358;SDS011;31096;49.292;8.710;2022-11-14T21:39:52;10.27;;;6.43;;
45358;SDS011;31096;49.292;8.710;2022-11-14T21:44:42;10.43;;;6.70;;
45358;SDS011;31096;49.292;8.710;2022-11-14T21:49:33;10.18;;;6.30;;
45358;SDS011;31096;49.292;8.710;2022-11-14T21:54:24;9.87;;;6.37;;
45358;SDS011;31096;49.292;8.710;2022-11-14T21:59:14;9.07;;;5.90;;
45358;SDS011;31096;49.292;8.710;2022-11-14T22:04:07;10.05;;;6.68;;
45358;SDS011;31096;49.292;8.710;2022-11-14T22:09:01;8.63;;;5.17;;
45358;SDS011;31096;49.292;8.710;2022-11-14T22:13:51;13.35;;;6.20;;
45358;SDS011;31096;49.292;8.710;2022-11-14T22:18:42;8.73;;;5.70;;
45358;SDS011;31096;49.292;8.710;2022-11-14T22:23:33;8.88;;;5.97;;
45358;SDS011;31096;49.292;8.710;2022-11-14T22:28:24;9.20;;;6.30;;
45358;SDS011;31096;49.292;8.710;2022-11-14T22:33:16;8.65;;;6.07;;
45358;SDS011;31096;49.292;8.710;2022-11-14T22:38:06;8.27;;;5.63;;
45358;SDS011;31096;49.292;8.710;2022-11-14T22:42:58;9.67;;;6.07;;
45358;SDS011;31096;49.292;8.710;2022-11-14T22:47:54;10.02;;;6.22;;
45358;SDS011;31096;49.292;8.710;2022-11-14T22:52:46;10.27;;;6.00;;
45358;SDS011;31096;49.292;8.710;2022-11-14T22:57:37;9.25;;;5.60;;
45358;SDS011;31096;49.292;8.710;2022-11-14T23:02:27;12.20;;;6.73;;
45358;SDS011;31096;49.292;8.710;2022-11-14T23:07:18;9.73;;;6.07;;
45358;SDS011;31096;49.292;8.710;2022-11-14T23:12:09;10.40;;;6.25;;
45358;SDS011;31096;49.292;8.710;2022-11-14T23:17:00;11.07;;;6.20;;
45358;SDS011;31096;49.292;8.710;2022-11-14T23:21:53;11.57;;;5.93;;
45358;SDS011;31096;49.292;8.710;2022-11-14T23:26:44;11.47;;;6.53;;
45358;SDS011;31096;49.292;8.710;2022-11-14T23:31:35;10.23;;;6.25;;
45358;SDS011;31096;49.292;8.710;2022-11-14T23:36:25;10.38;;;6.05;;
45358;SDS011;31096;49.292;8.710;2022-11-14T23:41:17;10.53;;;6.37;;
45358;SDS011;31096;49.292;8.710;2022-11-14T23:46:14;14.60;;;7.63;;
45358;SDS011;31096;49.292;8.710;2022-11-14T23:51:04;10.13;;;6.20;;
45358;SDS011;31096;49.292;8.710;2022-11-14T23:55:57;9.83;;;5.43;;
